• Join FlightAware (Why Join?)
  • Login
  • US Flag 
10:53PM EDT


 

Airport Tracker/Info


-or-


 

Live Flight TrackerFlight Track Log ✈ N55FN ✈ 14-May-2013 ✈ CYYZ - KPDK

Flight Track Log - Related Links

Times and Time Zones

All times are in EDT time to prevent confusion due to time zone crossing. See the N55FN flight status page for this flight to view local times or setup timezone preferences in your user account.

Time Position Orientation Groundspeed Altitude Reporting Facility
EDT Latitude Longitude Course Direction KTS MPH feet Rate Location/Type
06:14PM 43.6667 -79.6333 180° South 110 127 600  Level Toronto Center
06:17PM 43.5478 -79.6341 194° South  Level FlightAware Approximate
06:21PM 43.6333 -79.6333 189° South 220 253 2,500  Level Toronto Center
06:22PM 43.5833 -79.6833 216° Southwest 250 288 6,100 3,600 Climbing Toronto Center
06:23PM 43.5167 -79.7000 190° South 280 322 9,700 3,540 Climbing Toronto Center
06:24PM 42.7585 -79.7979 190° South  Level FlightAware Approximate
06:24PM 43.4167 -79.7167 187° South 320 368 13,200  Level Toronto Center
06:25PM 42.6457 -79.8261 190° South  Level FlightAware Approximate
06:25PM 43.3333 -79.7500 196° South 360 414 16,100  Level Toronto Center
06:26PM 42.5325 -79.8502 189° South  Level FlightAware Approximate
06:26PM 43.2167 -79.7667 186° South 390 449 18,400  Level Toronto Center
06:27PM 42.4193 -79.8753 189° South  Level FlightAware Approximate
06:27PM 43.1167 -79.7667 180° South 410 472 21,200  Level Toronto Center
06:28PM 43.0000 -79.8000 192° South 420 483 23,000 1,680 Climbing Toronto Center
06:30PM 42.8269 -79.8556 193° South 434 499 25,600 1,860 Climbing Cleveland Center
06:31PM 42.7061 -79.8769 187° South 446 513 27,800 1,680 Climbing Cleveland Center
06:32PM 42.5769 -79.8981 187° South 452 520 29,000 1,560 Climbing Cleveland Center
06:33PM 42.4311 -79.9222 187° South 474 545 31,000 1,500 Climbing Cleveland Center
06:34PM 42.2958 -79.9403 186° South 493 567 32,000 540 Climbing Cleveland Center
06:35PM 42.1564 -79.9614 186° South 498 573 32,100  Climbing Cleveland Center
06:36PM 42.0231 -79.9794 186° South 497 572 32,000 120 Descending Cleveland Center
06:37PM 41.8878 -80.0031 187° South 497 572 32,400 480 Climbing Cleveland Center
06:38PM 41.7544 -80.0319 189° South 497 572 33,000 780 Climbing Cleveland Center
06:39PM 41.6336 -80.0581 189° South 488 562 34,000 540 Climbing Cleveland Center
06:40PM 41.5003 -80.0897 190° South 488 562 34,100 180 Climbing Cleveland Center
06:41PM 41.3692 -80.1211 190° South 488 562 34,400 540 Climbing Cleveland Center
06:42PM 41.2358 -80.1469 188° South 488 562 35,200 660 Climbing Cleveland Center
06:43PM 41.1025 -80.1669 186° South 488 562 35,800 540 Climbing Cleveland Center
06:44PM 40.9628 -80.1872 186° South 494 568 36,300 420 Climbing Cleveland Center
06:45PM 40.8086 -80.2100 186° South 499 574 36,700 600 Climbing Cleveland Center
06:46PM 40.6900 -80.2492 194° South 504 580 37,500 600 Climbing Cleveland Center
06:47PM 40.5714 -80.3233 205° Southwest 484 557 37,900 240 Climbing Cleveland Center
06:48PM 40.4569 -80.4031 208° Southwest 478 550 38,000  Climbing Cleveland Center
06:49PM 40.3422 -80.4822 208° Southwest 472 543 38,000  Level Cleveland Center
06:50PM 40.2297 -80.5586 207° Southwest 464 534 38,000  Level Cleveland Center
06:51PM 40.1214 -80.6319 207° Southwest 452 520 38,000  Level Cleveland Center
06:52PM 40.0150 -80.6997 206° Southwest 440 506 38,000  Level Cleveland Center
06:54PM 39.7708 -80.8564 206° Southwest 439 505 38,000  Level Indianapolis Center
06:55PM 39.6594 -80.9261 206° Southwest 443 510 38,000  Level Indianapolis Center
06:56PM 39.5486 -80.9969 206° Southwest 444 511 38,000  Level Indianapolis Center
06:57PM 39.4364 -81.0700 207° Southwest 449 517 38,000  Level Indianapolis Center
06:58PM 39.3233 -81.1433 207° Southwest 452 520 38,000  Level Indianapolis Center
06:59PM 39.2108 -81.2172 207° Southwest 453 521 38,000  Level Indianapolis Center
07:00PM 39.0997 -81.2908 207° Southwest 449 517 38,000  Level Indianapolis Center
07:01PM 38.9661 -81.3803 208° Southwest 451 519 38,000  Level Indianapolis Center
07:02PM 38.8519 -81.4514 206° Southwest 454 522 38,000  Level Indianapolis Center
07:03PM 38.7331 -81.5261 206° Southwest 454 522 38,000  Level Indianapolis Center
07:04PM 38.6189 -81.5953 205° Southwest 454 522 38,000  Level Indianapolis Center
07:05PM 38.4992 -81.6706 206° Southwest 453 521 38,000  Level Indianapolis Center
07:06PM 38.3881 -81.7436 207° Southwest 450 518 38,000  Level Indianapolis Center
07:07PM 38.2681 -81.8036 201° Southwest 464 534 38,000  Level Indianapolis Center
07:08PM 38.1481 -81.8583 200° South 458 527 38,000  Level Indianapolis Center
07:09PM 38.0272 -81.9097 199° South 457 526 38,000  Level Indianapolis Center
07:10PM 37.8839 -81.9719 199° South 454 522 38,000  Level Indianapolis Center
07:11PM 37.7719 -82.0208 199° South 459 528 38,000  Level Indianapolis Center
07:12PM 37.6533 -82.0744 200° South 453 521 38,000  Level Indianapolis Center
07:13PM 37.5119 -82.1350 199° South 456 525 38,000  Level Indianapolis Center
07:14PM 37.3906 -82.1861 198° South 457 526 38,000  Level Indianapolis Center
07:15PM 37.2897 -82.2311 200° South 459 528 38,000  Level Atlanta Center
07:16PM 37.1717 -82.2806 198° South 459 528 38,000  Level Atlanta Center
07:17PM 37.0514 -82.3328 199° South 459 528 38,000  Level Atlanta Center
07:18PM 36.9311 -82.3794 197° South 459 528 38,000  Level Atlanta Center
07:19PM 36.9103 -82.3900 202° Southwest 450 518 38,000  Level Indianapolis Center
07:19PM 36.8256 -82.4258 199° South 459 528 38,000  Level Atlanta Center
07:20PM 36.7072 -82.4747 198° South 459 528 38,000  Level Atlanta Center
07:21PM 36.5869 -82.5261 199° South 459 528 38,000  Level Atlanta Center
07:22PM 36.4708 -82.5722 198° South 453 521 38,000  Level Atlanta Center
07:23PM 36.3547 -82.6233 200° South 448 516 38,000  Level Atlanta Center
07:24PM 36.2383 -82.6719 199° South 443 510 38,000  Level Atlanta Center
07:25PM 36.1222 -82.7200 198° South 443 510 38,000 -300 Level Atlanta Center
07:26PM 35.9975 -82.7761 200° South 443 510 37,500 -840 Descending Atlanta Center
07:27PM 35.8811 -82.8239 198° South 443 510 36,400 -1,140 Descending Atlanta Center
07:28PM 35.7628 -82.8717 198° South 443 510 35,300 -720 Descending Atlanta Center
07:29PM 35.6483 -82.9169 198° South 443 510 35,000 -180 Descending Atlanta Center
07:30PM 35.5319 -82.9644 198° South 443 510 35,000 -180 Level Atlanta Center
07:31PM 35.4197 -83.0117 199° South 443 510 34,700 1,500 Descending Atlanta Center
07:32PM 35.3119 -83.0767 206° Southwest 437 503 38,000 -2,400 Climbing Atlanta Center
07:33PM 35.2208 -83.1719 221° Southwest 428 493 29,900 -5,160 Descending Atlanta Center
07:34PM 35.1294 -83.2617 219° Southwest 434 499 27,700 -2,160 Descending Atlanta Center
07:35PM 35.0383 -83.3539 220° Southwest 429 494 25,600 -1,680 Descending Atlanta Center
07:36PM 34.9531 -83.4381 219° Southwest 424 488 24,400 -1,500 Descending Atlanta Center
07:37PM 34.8700 -83.5197 219° Southwest 406 467 22,600 -2,100 Descending Atlanta Center
07:39PM 34.7161 -83.6722 219° Southwest 383 441 18,100 -2,400 Descending Atlanta Center
07:40PM 34.6372 -83.7508 219° Southwest 372 428 15,400 -2,760 Descending Atlanta Center
07:41PM 34.5664 -83.8219 220° Southwest 355 409 12,600 -2,520 Descending Atlanta Center
07:42PM 34.4997 -83.8900 220° Southwest 326 375 10,400 -2,100 Descending Atlanta Center
07:43PM 34.4392 -83.9481 218° Southwest 298 343 8,500 -1,200 Descending Atlanta Center
07:44PM 34.3808 -84.0061 219° Southwest 269 310 8,100 -300 Descending Atlanta Center
07:45PM 34.3264 -84.0589 219° Southwest 258 297 8,000 -300 Descending Atlanta Center
07:46PM 34.2597 -84.0967 205° Southwest 258 297 7,600 -1,020 Descending Atlanta Center
07:47PM 34.2011 -84.1292 205° Southwest 249 287 6,000 -1,620 Descending Atlanta Center
07:48PM 34.1469 -84.1567 203° Southwest 231 266 4,400 -1,380 Descending Atlanta Center
07:49PM 34.1167 -84.1667 195° South 204 235 4,000 -660 Descending Atlanta TRACON
07:50PM 34.0667 -84.2000 209° Southwest 198 228 3,500 -480 Descending Atlanta TRACON
07:51PM 34.0167 -84.2167 195° South 199 229 3,100 -300 Descending Atlanta TRACON
07:52PM 33.9611 -84.2617 214° Southwest 180 207 2,800 -420 Descending Atlanta Center
07:53PM 33.9500 -84.2667 200° South 138 159 2,300 -900 Descending Atlanta TRACON
07:54PM 33.9000 -84.2833 195° South 126 145 1,500 -780 Descending Atlanta TRACON
07:56PM 33.8667 -84.3000 209° Southwest  Level FlightAware Approximate
08:03PM 33.8756 -84.3020 209° Southwest  Level Estimated